GELEG LMML-DTTJ
Flight info
| Callsign | GELEG |
|---|---|
| Flight time | 0h 37m |
| Altitude | 32000 |
| Route | OBITA DCT RALAK G362 TRIFA |
| Aircraft | E35L/M-SDFGIRWXY/SB1 |
Departure
| Time | 2026-04-29 09:56 |
|---|---|
| Airport | Malta International Airport (LMML) |
Arrival
| Time | 2026-04-29 10:33 |
|---|---|
| Airport | Djerba Zarzis International Airport (DTTJ) |
| Time | Latitude | Longitude | Altitude | Speed | Heading |
|---|---|---|---|---|---|
| 2026-04-29 09:52 | 35.85968 | 14.47785 | 304 ft | 0 kts | 151° |
| 2026-04-29 09:54 | 35.85966 | 14.47786 | 304 ft | 1 kts | 151° |
| 2026-04-29 09:54 | 35.85927 | 14.47803 | 304 ft | 8 kts | 150° |
| 2026-04-29 09:54 | 35.85936 | 14.47871 | 304 ft | 11 kts | 70° |
| 2026-04-29 09:54 | 35.85975 | 14.47981 | 304 ft | 17 kts | 60° |
| 2026-04-29 09:55 | 35.86005 | 14.48104 | 304 ft | 12 kts | 115° |
| 2026-04-29 09:55 | 35.85971 | 14.48114 | 304 ft | 1 kts | 232° |
| 2026-04-29 09:55 | 35.85954 | 14.48088 | 304 ft | 13 kts | 233° |
| 2026-04-29 09:55 | 35.85811 | 14.47838 | 304 ft | 94 kts | 232° |
| 2026-04-29 09:56 | 35.85031 | 14.46480 | 922 ft | 170 kts | 230° |
| 2026-04-29 09:56 | 35.84566 | 14.45670 | 1635 ft | 180 kts | 230° |
| 2026-04-29 09:56 | 35.83516 | 14.43856 | 2695 ft | 222 kts | 232° |
| 2026-04-29 09:56 | 35.82536 | 14.42149 | 3272 ft | 269 kts | 233° |
| 2026-04-29 09:57 | 35.81793 | 14.40850 | 3965 ft | 286 kts | 233° |
| 2026-04-29 09:57 | 35.80380 | 14.38126 | 5918 ft | 290 kts | 244° |
| 2026-04-29 09:57 | 35.79450 | 14.35977 | 7392 ft | 290 kts | 245° |
| 2026-04-29 09:57 | 35.78524 | 14.33809 | 8778 ft | 291 kts | 246° |
| 2026-04-29 09:58 | 35.77562 | 14.31538 | 9639 ft | 303 kts | 247° |
| 2026-04-29 09:58 | 35.76597 | 14.29274 | 10853 ft | 298 kts | 248° |
| 2026-04-29 09:58 | 35.75679 | 14.27123 | 12381 ft | 289 kts | 248° |
| 2026-04-29 09:58 | 35.75064 | 14.25683 | 13241 ft | 287 kts | 248° |
| 2026-04-29 09:59 | 35.73805 | 14.22727 | 14472 ft | 299 kts | 249° |
| 2026-04-29 09:59 | 35.72834 | 14.20454 | 15381 ft | 306 kts | 249° |
| 2026-04-29 09:59 | 35.72172 | 14.18909 | 16026 ft | 309 kts | 249° |
| 2026-04-29 09:59 | 35.70834 | 14.15784 | 17292 ft | 314 kts | 249° |
| 2026-04-29 10:00 | 35.69816 | 14.13406 | 18117 ft | 319 kts | 250° |
| 2026-04-29 10:00 | 35.69120 | 14.11783 | 18660 ft | 323 kts | 250° |
| 2026-04-29 10:00 | 35.67711 | 14.08500 | 19716 ft | 329 kts | 250° |
| 2026-04-29 10:00 | 35.66639 | 14.06006 | 20491 ft | 333 kts | 250° |
| 2026-04-29 10:01 | 35.65541 | 14.03450 | 21209 ft | 338 kts | 250° |
| 2026-04-29 10:01 | 35.64440 | 14.00889 | 21891 ft | 343 kts | 250° |
| 2026-04-29 10:01 | 35.63316 | 13.98277 | 22555 ft | 348 kts | 251° |
| 2026-04-29 10:01 | 35.62190 | 13.95665 | 23213 ft | 351 kts | 251° |
| 2026-04-29 10:02 | 35.61035 | 13.92987 | 23841 ft | 356 kts | 251° |
| 2026-04-29 10:02 | 35.59873 | 13.90292 | 24427 ft | 360 kts | 251° |
| 2026-04-29 10:02 | 35.58705 | 13.87587 | 24996 ft | 364 kts | 251° |
| 2026-04-29 10:02 | 35.57454 | 13.84696 | 25597 ft | 368 kts | 251° |
| 2026-04-29 10:03 | 35.56218 | 13.81837 | 26122 ft | 373 kts | 251° |
| 2026-04-29 10:03 | 35.54937 | 13.78881 | 26674 ft | 377 kts | 251° |
| 2026-04-29 10:03 | 35.53613 | 13.75825 | 27200 ft | 381 kts | 251° |
| 2026-04-29 10:03 | 35.52335 | 13.72878 | 27719 ft | 384 kts | 251° |
| 2026-04-29 10:04 | 35.51038 | 13.69891 | 28194 ft | 388 kts | 251° |
| 2026-04-29 10:04 | 35.49680 | 13.66765 | 28680 ft | 392 kts | 251° |
| 2026-04-29 10:04 | 35.48338 | 13.63679 | 29120 ft | 396 kts | 252° |
| 2026-04-29 10:04 | 35.46978 | 13.60557 | 29548 ft | 400 kts | 252° |
| 2026-04-29 10:05 | 35.45564 | 13.57310 | 30003 ft | 403 kts | 252° |
| 2026-04-29 10:05 | 35.44194 | 13.54173 | 30423 ft | 406 kts | 252° |
| 2026-04-29 10:05 | 35.42820 | 13.51020 | 30784 ft | 411 kts | 252° |
| 2026-04-29 10:05 | 35.41359 | 13.47683 | 31183 ft | 414 kts | 252° |
| 2026-04-29 10:06 | 35.40389 | 13.45462 | 31479 ft | 415 kts | 252° |
| 2026-04-29 10:06 | 35.38488 | 13.41121 | 31947 ft | 420 kts | 252° |
| 2026-04-29 10:06 | 35.35485 | 13.34268 | 32024 ft | 435 kts | 251° |
| 2026-04-29 10:07 | 35.32637 | 13.27792 | 32022 ft | 433 kts | 251° |
| 2026-04-29 10:07 | 35.29789 | 13.21326 | 32024 ft | 431 kts | 251° |
| 2026-04-29 10:08 | 35.26894 | 13.14757 | 32023 ft | 429 kts | 250° |
| 2026-04-29 10:08 | 35.24046 | 13.08311 | 32025 ft | 427 kts | 250° |
| 2026-04-29 10:09 | 35.21224 | 13.01939 | 32025 ft | 425 kts | 249° |
| 2026-04-29 10:09 | 35.18422 | 12.95621 | 32024 ft | 423 kts | 249° |
| 2026-04-29 10:10 | 35.15625 | 12.89336 | 32024 ft | 421 kts | 249° |
| 2026-04-29 10:10 | 35.12811 | 12.83017 | 32024 ft | 420 kts | 249° |
| 2026-04-29 10:11 | 35.10009 | 12.76737 | 32026 ft | 421 kts | 249° |
| 2026-04-29 10:11 | 35.07193 | 12.70435 | 32026 ft | 423 kts | 249° |
| 2026-04-29 10:12 | 35.04359 | 12.64106 | 32026 ft | 424 kts | 249° |
| 2026-04-29 10:12 | 35.01498 | 12.57728 | 32026 ft | 425 kts | 249° |
| 2026-04-29 10:13 | 34.98612 | 12.51304 | 32026 ft | 425 kts | 249° |
| 2026-04-29 10:13 | 34.95726 | 12.44892 | 32027 ft | 426 kts | 248° |
| 2026-04-29 10:14 | 34.92769 | 12.38341 | 32028 ft | 427 kts | 248° |
| 2026-04-29 10:14 | 34.89803 | 12.31776 | 32026 ft | 428 kts | 247° |
| 2026-04-29 10:15 | 34.86891 | 12.25348 | 32014 ft | 428 kts | 247° |
| 2026-04-29 10:15 | 34.84000 | 12.18980 | 32017 ft | 428 kts | 248° |
| 2026-04-29 10:16 | 34.81544 | 12.13576 | 32015 ft | 428 kts | 247° |
| 2026-04-29 10:16 | 34.78167 | 12.06160 | 32016 ft | 428 kts | 247° |
| 2026-04-29 10:17 | 34.75196 | 11.99644 | 32017 ft | 429 kts | 247° |
| 2026-04-29 10:17 | 34.72203 | 11.93098 | 32012 ft | 429 kts | 247° |
| 2026-04-29 10:18 | 34.69254 | 11.86657 | 32003 ft | 429 kts | 247° |
| 2026-04-29 10:18 | 34.66310 | 11.80241 | 31996 ft | 429 kts | 247° |
| 2026-04-29 10:19 | 34.63377 | 11.73860 | 31993 ft | 429 kts | 247° |
| 2026-04-29 10:19 | 34.60401 | 11.67397 | 31991 ft | 430 kts | 247° |
| 2026-04-29 10:20 | 34.57380 | 11.60853 | 31990 ft | 430 kts | 248° |
| 2026-04-29 10:20 | 34.54377 | 11.54353 | 31990 ft | 430 kts | 247° |
| 2026-04-29 10:21 | 34.50808 | 11.48346 | 32009 ft | 441 kts | 230° |
| 2026-04-29 10:21 | 34.46373 | 11.43260 | 31946 ft | 445 kts | 228° |
| 2026-04-29 10:22 | 34.44065 | 11.40662 | 31230 ft | 452 kts | 228° |
| 2026-04-29 10:22 | 34.41794 | 11.38112 | 30612 ft | 444 kts | 228° |
| 2026-04-29 10:22 | 34.40312 | 11.36449 | 30196 ft | 439 kts | 228° |
| 2026-04-29 10:22 | 34.37349 | 11.33122 | 29260 ft | 431 kts | 227° |
| 2026-04-29 10:23 | 34.35208 | 11.30696 | 28519 ft | 424 kts | 228° |
| 2026-04-29 10:23 | 34.33799 | 11.29094 | 28019 ft | 419 kts | 228° |
| 2026-04-29 10:23 | 34.31019 | 11.25933 | 27023 ft | 409 kts | 228° |
| 2026-04-29 10:23 | 34.28964 | 11.23596 | 26272 ft | 403 kts | 228° |
| 2026-04-29 10:24 | 34.26937 | 11.21293 | 25520 ft | 396 kts | 228° |
| 2026-04-29 10:24 | 34.24971 | 11.19061 | 24781 ft | 391 kts | 228° |
| 2026-04-29 10:24 | 34.22996 | 11.16828 | 24032 ft | 385 kts | 228° |
| 2026-04-29 10:24 | 34.21079 | 11.14668 | 23293 ft | 378 kts | 228° |
| 2026-04-29 10:25 | 34.19190 | 11.12538 | 22551 ft | 373 kts | 228° |
| 2026-04-29 10:25 | 34.17298 | 11.10403 | 21795 ft | 368 kts | 228° |
| 2026-04-29 10:25 | 34.15469 | 11.08339 | 21060 ft | 363 kts | 228° |
| 2026-04-29 10:25 | 34.13602 | 11.06232 | 20298 ft | 358 kts | 228° |
| 2026-04-29 10:26 | 34.11796 | 11.04195 | 19551 ft | 354 kts | 228° |
| 2026-04-29 10:26 | 34.10019 | 11.02191 | 18804 ft | 350 kts | 228° |
| 2026-04-29 10:26 | 34.08267 | 11.00216 | 18063 ft | 345 kts | 227° |
| 2026-04-29 10:26 | 34.06514 | 10.98244 | 17310 ft | 341 kts | 227° |
| 2026-04-29 10:27 | 34.03433 | 10.94131 | 15805 ft | 320 kts | 250° |
| 2026-04-29 10:27 | 34.02573 | 10.91710 | 15080 ft | 315 kts | 252° |
| 2026-04-29 10:27 | 34.02025 | 10.90106 | 14585 ft | 312 kts | 253° |
| 2026-04-29 10:28 | 34.00960 | 10.86908 | 13593 ft | 308 kts | 253° |
| 2026-04-29 10:28 | 34.00184 | 10.84556 | 12852 ft | 305 kts | 253° |
| 2026-04-29 10:28 | 33.99411 | 10.82207 | 12107 ft | 302 kts | 253° |
| 2026-04-29 10:28 | 33.98642 | 10.79864 | 11358 ft | 299 kts | 253° |
| 2026-04-29 10:29 | 33.97878 | 10.77539 | 10607 ft | 298 kts | 253° |
| 2026-04-29 10:29 | 33.97118 | 10.75224 | 9857 ft | 296 kts | 252° |
| 2026-04-29 10:29 | 33.96365 | 10.72935 | 9109 ft | 294 kts | 252° |
| 2026-04-29 10:29 | 33.95611 | 10.70644 | 8360 ft | 293 kts | 252° |
| 2026-04-29 10:30 | 33.94871 | 10.68397 | 7619 ft | 291 kts | 252° |
| 2026-04-29 10:30 | 33.94128 | 10.66143 | 6876 ft | 291 kts | 251° |
| 2026-04-29 10:30 | 33.93378 | 10.63871 | 6124 ft | 289 kts | 251° |
| 2026-04-29 10:30 | 33.92454 | 10.61714 | 5348 ft | 288 kts | 232° |
| 2026-04-29 10:31 | 33.90950 | 10.60404 | 4105 ft | 272 kts | 201° |
| 2026-04-29 10:31 | 33.89149 | 10.60231 | 2506 ft | 268 kts | 166° |
| 2026-04-29 10:31 | 33.87770 | 10.61357 | 2008 ft | 220 kts | 124° |
| 2026-04-29 10:31 | 33.87155 | 10.62853 | 1961 ft | 186 kts | 93° |
| 2026-04-29 10:32 | 33.87207 | 10.64416 | 1924 ft | 182 kts | 84° |
| 2026-04-29 10:32 | 33.87265 | 10.67045 | 1500 ft | 174 kts | 85° |
| 2026-04-29 10:32 | 33.87344 | 10.69856 | 1034 ft | 159 kts | 86° |
| 2026-04-29 10:32 | 33.87407 | 10.72331 | 653 ft | 139 kts | 86° |
| 2026-04-29 10:33 | 33.87462 | 10.74465 | 286 ft | 123 kts | 86° |
| 2026-04-29 10:33 | 33.87491 | 10.75494 | 114 ft | 125 kts | 86° |
| 2026-04-29 10:33 | 33.87515 | 10.76530 | 11 ft | 114 kts | 88° |
| 2026-04-29 10:33 | 33.87525 | 10.76943 | 12 ft | 0 kts | 88° |